sensor_id;sensor_type;location;lat;lon;timestamp;pressure;altitude;pressure_sealevel;temperature;humidity
57086;BME280;42964;42.910;23.792;2023-03-08T00:02:44;96827.91;;;6.01;60.93
57086;BME280;42964;42.910;23.792;2023-03-08T00:07:43;96827.88;;;5.85;61.18
57086;BME280;42964;42.910;23.792;2023-03-08T00:12:42;96825.28;;;5.85;61.24
57086;BME280;42964;42.910;23.792;2023-03-08T00:17:41;96827.00;;;5.80;61.50
57086;BME280;42964;42.910;23.792;2023-03-08T00:22:41;96835.53;;;5.67;61.21
57086;BME280;42964;42.910;23.792;2023-03-08T00:27:40;96838.97;;;5.64;62.31
57086;BME280;42964;42.910;23.792;2023-03-08T00:32:39;96699.69;;;4.83;62.27
57086;BME280;42964;42.910;23.792;2023-03-08T00:37:38;96833.81;;;5.63;62.94
57086;BME280;42964;42.910;23.792;2023-03-08T00:42:37;96838.94;;;5.57;62.79
57086;BME280;42964;42.910;23.792;2023-03-08T00:47:36;96822.59;;;5.50;63.04
57086;BME280;42964;42.910;23.792;2023-03-08T00:52:35;96825.16;;;5.39;63.43
57086;BME280;42964;42.910;23.792;2023-03-08T00:57:34;96827.72;;;5.38;63.18
57086;BME280;42964;42.910;23.792;2023-03-08T01:02:33;96801.00;;;5.12;63.71
57086;BME280;42964;42.910;23.792;2023-03-08T01:07:32;96816.47;;;5.22;64.13
57086;BME280;42964;42.910;23.792;2023-03-08T01:12:32;96812.09;;;5.02;64.67
57086;BME280;42964;42.910;23.792;2023-03-08T01:17:31;96832.69;;;5.08;64.57
57086;BME280;42964;42.910;23.792;2023-03-08T01:22:30;96830.09;;;5.05;64.47
57086;BME280;42964;42.910;23.792;2023-03-08T01:27:29;96830.97;;;5.06;64.53
57086;BME280;42964;42.910;23.792;2023-03-08T01:32:28;96833.56;;;5.07;65.12
57086;BME280;42964;42.910;23.792;2023-03-08T01:37:27;96828.34;;;4.98;65.05
57086;BME280;42964;42.910;23.792;2023-03-08T01:42:27;96824.06;;;4.97;64.92
57086;BME280;42964;42.910;23.792;2023-03-08T01:47:28;96825.66;;;4.81;65.98
57086;BME280;42964;42.910;23.792;2023-03-08T01:52:35;96720.59;;;4.02;66.44
57086;BME280;42964;42.910;23.792;2023-03-08T01:57:38;96841.06;;;4.81;65.38
57086;BME280;42964;42.910;23.792;2023-03-08T02:02:50;96843.63;;;4.77;65.62
57086;BME280;42964;42.910;23.792;2023-03-08T02:07:50;96841.88;;;4.74;65.38
57086;BME280;42964;42.910;23.792;2023-03-08T02:12:49;96841.88;;;4.72;65.38
57086;BME280;42964;42.910;23.792;2023-03-08T02:17:48;96840.97;;;4.67;66.17
57086;BME280;42964;42.910;23.792;2023-03-08T02:22:47;96842.66;;;4.65;66.06
57086;BME280;42964;42.910;23.792;2023-03-08T02:27:50;96841.75;;;4.59;66.25
57086;BME280;42964;42.910;23.792;2023-03-08T02:32:50;96840.88;;;4.57;66.32
57086;BME280;42964;42.910;23.792;2023-03-08T02:37:49;96835.75;;;4.58;66.02
57086;BME280;42964;42.910;23.792;2023-03-08T02:42:48;96845.19;;;4.61;66.07
57086;BME280;42964;42.910;23.792;2023-03-08T02:47:47;96822.78;;;4.43;66.65
57086;BME280;42964;42.910;23.792;2023-03-08T02:52:46;96853.69;;;4.52;67.08
57086;BME280;42964;42.910;23.792;2023-03-08T02:57:45;96864.81;;;4.51;66.62
57086;BME280;42964;42.910;23.792;2023-03-08T03:02:44;96880.22;;;4.48;66.54
57086;BME280;42964;42.910;23.792;2023-03-08T03:07:43;96880.19;;;4.45;66.99
57086;BME280;42964;42.910;23.792;2023-03-08T03:12:42;96881.91;;;4.46;66.69
57086;BME280;42964;42.910;23.792;2023-03-08T03:17:41;96886.19;;;4.47;66.11
57086;BME280;42964;42.910;23.792;2023-03-08T03:22:40;96872.47;;;4.45;66.27
57086;BME280;42964;42.910;23.792;2023-03-08T03:27:39;96876.72;;;4.43;66.70
57086;BME280;42964;42.910;23.792;2023-03-08T03:32:38;96880.16;;;4.42;67.46
57086;BME280;42964;42.910;23.792;2023-03-08T03:37:37;96809.31;;;3.74;67.98
57086;BME280;42964;42.910;23.792;2023-03-08T03:42:36;96884.94;;;4.03;69.22
57086;BME280;42964;42.910;23.792;2023-03-08T03:47:35;96885.00;;;4.13;68.28
57086;BME280;42964;42.910;23.792;2023-03-08T03:52:34;96899.53;;;4.12;68.49
57086;BME280;42964;42.910;23.792;2023-03-08T03:57:33;96907.72;;;3.77;70.31
57086;BME280;42964;42.910;23.792;2023-03-08T04:02:32;96910.97;;;3.65;71.55
57086;BME280;42964;42.910;23.792;2023-03-08T04:07:32;96905.19;;;3.82;70.63
57086;BME280;42964;42.910;23.792;2023-03-08T04:12:31;96898.47;;;3.90;70.02
57086;BME280;42964;42.910;23.792;2023-03-08T04:17:30;96911.44;;;4.04;69.75
57086;BME280;42964;42.910;23.792;2023-03-08T04:22:29;96901.31;;;4.16;69.23
57086;BME280;42964;42.910;23.792;2023-03-08T04:27:28;96878.19;;;4.16;68.81
57086;BME280;42964;42.910;23.792;2023-03-08T04:32:27;96892.81;;;4.20;68.74
57086;BME280;42964;42.910;23.792;2023-03-08T04:37:26;96881.72;;;4.26;68.39
57086;BME280;42964;42.910;23.792;2023-03-08T04:42:25;96880.75;;;4.13;68.86
57086;BME280;42964;42.910;23.792;2023-03-08T04:47:24;96902.16;;;3.43;72.42
57086;BME280;42964;42.910;23.792;2023-03-08T04:52:23;96837.06;;;3.32;71.72
57086;BME280;42964;42.910;23.792;2023-03-08T04:57:22;96921.28;;;3.67;71.39
57086;BME280;42964;42.910;23.792;2023-03-08T05:02:22;96912.88;;;3.79;71.55
57086;BME280;42964;42.910;23.792;2023-03-08T05:07:21;96938.78;;;3.99;70.65
57086;BME280;42964;42.910;23.792;2023-03-08T05:12:20;96918.44;;;4.17;70.75
57086;BME280;42964;42.910;23.792;2023-03-08T05:17:19;96928.78;;;4.23;70.90
57086;BME280;42964;42.910;23.792;2023-03-08T05:22:18;96935.06;;;4.53;70.35
57086;BME280;42964;42.910;23.792;2023-03-08T05:27:17;96895.25;;;4.08;69.94
57086;BME280;42964;42.910;23.792;2023-03-08T05:32:16;96922.25;;;4.56;69.22
57086;BME280;42964;42.910;23.792;2023-03-08T05:37:15;96953.31;;;4.81;69.52
57086;BME280;42964;42.910;23.792;2023-03-08T05:42:14;96971.44;;;4.95;68.86
57086;BME280;42964;42.910;23.792;2023-03-08T05:47:13;96992.91;;;5.01;68.73
57086;BME280;42964;42.910;23.792;2023-03-08T05:52:11;96986.28;;;5.26;67.97
57086;BME280;42964;42.910;23.792;2023-03-08T05:57:10;96972.59;;;5.30;67.64
57086;BME280;42964;42.910;23.792;2023-03-08T06:02:09;97004.50;;;5.59;66.82
57086;BME280;42964;42.910;23.792;2023-03-08T06:07:08;97001.13;;;5.69;66.85
57086;BME280;42964;42.910;23.792;2023-03-08T06:12:07;97013.28;;;5.88;66.68
57086;BME280;42964;42.910;23.792;2023-03-08T06:17:06;97021.16;;;6.19;65.96
57086;BME280;42964;42.910;23.792;2023-03-08T06:22:05;97011.00;;;6.62;64.14
57086;BME280;42964;42.910;23.792;2023-03-08T06:27:04;97003.31;;;6.88;63.35
57086;BME280;42964;42.910;23.792;2023-03-08T06:32:03;96985.25;;;7.02;63.21
57086;BME280;42964;42.910;23.792;2023-03-08T06:37:02;97022.25;;;7.38;61.54
57086;BME280;42964;42.910;23.792;2023-03-08T06:42:01;97017.06;;;7.84;61.26
57086;BME280;42964;42.910;23.792;2023-03-08T06:47:00;96990.38;;;7.88;59.53
57086;BME280;42964;42.910;23.792;2023-03-08T06:51:59;97019.44;;;8.50;58.82
57086;BME280;42964;42.910;23.792;2023-03-08T06:56:58;97030.41;;;8.95;58.34
57086;BME280;42964;42.910;23.792;2023-03-08T07:01:57;97025.88;;;9.29;58.49
57086;BME280;42964;42.910;23.792;2023-03-08T07:06:56;97038.44;;;9.75;56.80
57086;BME280;42964;42.910;23.792;2023-03-08T07:11:56;97042.34;;;10.16;55.56
57086;BME280;42964;42.910;23.792;2023-03-08T07:16:55;97031.38;;;10.67;55.07
57086;BME280;42964;42.910;23.792;2023-03-08T07:21:54;97027.41;;;11.07;53.26
57086;BME280;42964;42.910;23.792;2023-03-08T07:26:53;97019.09;;;11.40;51.50
57086;BME280;42964;42.910;23.792;2023-03-08T07:31:52;97036.44;;;11.89;49.62
57086;BME280;42964;42.910;23.792;2023-03-08T07:36:51;97037.53;;;12.24;47.59
57086;BME280;42964;42.910;23.792;2023-03-08T07:41:50;97021.13;;;12.66;46.74
57086;BME280;42964;42.910;23.792;2023-03-08T07:46:49;97023.91;;;12.97;45.07
57086;BME280;42964;42.910;23.792;2023-03-08T07:51:48;96992.63;;;13.00;43.44
57086;BME280;42964;42.910;23.792;2023-03-08T07:56:50;97022.72;;;13.49;42.64
57086;BME280;42964;42.910;23.792;2023-03-08T08:01:49;97012.22;;;13.54;40.92
57086;BME280;42964;42.910;23.792;2023-03-08T08:06:49;96976.66;;;13.50;40.61
57086;BME280;42964;42.910;23.792;2023-03-08T08:11:48;97016.22;;;14.02;40.37
57086;BME280;42964;42.910;23.792;2023-03-08T08:16:47;97022.38;;;14.30;39.24
57086;BME280;42964;42.910;23.792;2023-03-08T08:21:45;97017.75;;;14.40;38.32
57086;BME280;42964;42.910;23.792;2023-03-08T08:26:44;97013.50;;;14.67;37.61
57086;BME280;42964;42.910;23.792;2023-03-08T08:31:43;97016.94;;;14.99;37.56
57086;BME280;42964;42.910;23.792;2023-03-08T08:36:42;97016.66;;;15.36;35.22
57086;BME280;42964;42.910;23.792;2023-03-08T08:41:41;97017.22;;;15.46;34.86
57086;BME280;42964;42.910;23.792;2023-03-08T08:46:40;97009.22;;;15.77;33.76
57086;BME280;42964;42.910;23.792;2023-03-08T08:51:39;97009.47;;;16.21;33.85
57086;BME280;42964;42.910;23.792;2023-03-08T08:56:38;97014.66;;;16.46;32.69
57086;BME280;42964;42.910;23.792;2023-03-08T09:01:40;97002.28;;;16.75;31.82
57086;BME280;42964;42.910;23.792;2023-03-08T09:06:41;97001.34;;;17.00;31.78
57086;BME280;42964;42.910;23.792;2023-03-08T09:11:43;97000.03;;;17.11;31.49
57086;BME280;42964;42.910;23.792;2023-03-08T09:16:43;97010.28;;;17.18;31.45
57086;BME280;42964;42.910;23.792;2023-03-08T09:21:42;97001.78;;;17.33;30.93
57086;BME280;42964;42.910;23.792;2023-03-08T09:26:41;96991.63;;;17.47;30.59
57086;BME280;42964;42.910;23.792;2023-03-08T09:31:42;96939.13;;;17.27;30.78
57086;BME280;42964;42.910;23.792;2023-03-08T09:36:42;97003.91;;;17.67;30.86
57086;BME280;42964;42.910;23.792;2023-03-08T09:42:01;96999.09;;;17.56;30.59
57086;BME280;42964;42.910;23.792;2023-03-08T09:47:03;97005.88;;;17.62;30.65
57086;BME280;42964;42.910;23.792;2023-03-08T09:52:12;96982.47;;;17.35;30.79
57086;BME280;42964;42.910;23.792;2023-03-08T09:57:20;96990.41;;;17.34;31.83
57086;BME280;42964;42.910;23.792;2023-03-08T10:02:37;96985.28;;;17.09;31.12
57086;BME280;42964;42.910;23.792;2023-03-08T10:18:14;96999.06;;;16.67;32.92
57086;BME280;42964;42.910;23.792;2023-03-08T10:23:19;96997.41;;;16.89;32.45
57086;BME280;42964;42.910;23.792;2023-03-08T10:28:21;96988.69;;;17.11;33.11
57086;BME280;42964;42.910;23.792;2023-03-08T10:33:22;96982.84;;;17.26;32.43
57086;BME280;42964;42.910;23.792;2023-03-08T10:38:30;96994.25;;;17.47;32.90
57086;BME280;42964;42.910;23.792;2023-03-08T10:43:37;96971.00;;;16.94;32.22
57086;BME280;42964;42.910;23.792;2023-03-08T10:48:37;96982.47;;;16.68;33.15
57086;BME280;42964;42.910;23.792;2023-03-08T10:53:36;96967.50;;;17.17;34.29
57086;BME280;42964;42.910;23.792;2023-03-08T10:58:36;96947.84;;;17.27;33.56
57086;BME280;42964;42.910;23.792;2023-03-08T11:03:36;96958.88;;;17.56;32.30
57086;BME280;42964;42.910;23.792;2023-03-08T11:08:37;96941.91;;;17.65;32.57
57086;BME280;42964;42.910;23.792;2023-03-08T11:13:46;96950.81;;;17.18;31.76
57086;BME280;42964;42.910;23.792;2023-03-08T11:24:03;96934.81;;;17.04;33.11
57086;BME280;42964;42.910;23.792;2023-03-08T11:34:56;96912.44;;;17.17;32.68
57086;BME280;42964;42.910;23.792;2023-03-08T11:45:38;96888.03;;;18.17;31.09
57086;BME280;42964;42.910;23.792;2023-03-08T11:56:06;96893.13;;;18.21;31.48
57086;BME280;42964;42.910;23.792;2023-03-08T12:01:29;96896.75;;;17.79;31.32
57086;BME280;42964;42.910;23.792;2023-03-08T12:06:34;96876.72;;;16.92;32.44
57086;BME280;42964;42.910;23.792;2023-03-08T12:11:44;96900.06;;;16.99;33.53
57086;BME280;42964;42.910;23.792;2023-03-08T12:32:48;96880.56;;;16.38;33.61
57086;BME280;42964;42.910;23.792;2023-03-08T12:38:00;96875.09;;;16.44;34.18
57086;BME280;42964;42.910;23.792;2023-03-08T12:48:32;96851.53;;;16.44;33.76
57086;BME280;42964;42.910;23.792;2023-03-08T12:58:56;96843.09;;;17.24;32.80
57086;BME280;42964;42.910;23.792;2023-03-08T13:03:55;96841.13;;;17.29;32.88
57086;BME280;42964;42.910;23.792;2023-03-08T13:19:41;96834.94;;;17.71;31.95
57086;BME280;42964;42.910;23.792;2023-03-08T13:24:52;96816.19;;;17.81;32.35
57086;BME280;42964;42.910;23.792;2023-03-08T13:29:53;96821.09;;;18.07;31.86
57086;BME280;42964;42.910;23.792;2023-03-08T13:35:00;96817.47;;;18.10;31.13
57086;BME280;42964;42.910;23.792;2023-03-08T13:40:00;96813.56;;;18.18;30.69
57086;BME280;42964;42.910;23.792;2023-03-08T13:45:15;96821.19;;;18.25;30.49
57086;BME280;42964;42.910;23.792;2023-03-08T13:50:24;96814.63;;;18.14;30.03
57086;BME280;42964;42.910;23.792;2023-03-08T13:55:31;96795.59;;;17.51;29.81
57086;BME280;42964;42.910;23.792;2023-03-08T14:00:33;96820.38;;;17.64;30.53
57086;BME280;42964;42.910;23.792;2023-03-08T14:05:40;96820.84;;;17.53;30.53
57086;BME280;42964;42.910;23.792;2023-03-08T14:10:47;96820.75;;;17.36;30.30
57086;BME280;42964;42.910;23.792;2023-03-08T14:15:53;96811.16;;;17.14;30.17
57086;BME280;42964;42.910;23.792;2023-03-08T14:21:14;96807.19;;;17.26;30.56
57086;BME280;42964;42.910;23.792;2023-03-08T14:26:32;96815.34;;;17.39;30.80
57086;BME280;42964;42.910;23.792;2023-03-08T14:31:32;96818.38;;;17.50;30.00
57086;BME280;42964;42.910;23.792;2023-03-08T14:36:32;96817.56;;;17.48;30.03
57086;BME280;42964;42.910;23.792;2023-03-08T14:41:33;96820.00;;;17.53;30.22
57086;BME280;42964;42.910;23.792;2023-03-08T14:46:33;96818.16;;;17.55;30.23
57086;BME280;42964;42.910;23.792;2023-03-08T14:51:41;96819.75;;;17.18;30.47
57086;BME280;42964;42.910;23.792;2023-03-08T14:56:40;96811.75;;;17.01;30.39
57086;BME280;42964;42.910;23.792;2023-03-08T15:01:39;96819.06;;;16.70;30.68
57086;BME280;42964;42.910;23.792;2023-03-08T15:06:38;96815.34;;;16.54;31.37
57086;BME280;42964;42.910;23.792;2023-03-08T15:11:38;96822.72;;;16.66;31.55
57086;BME280;42964;42.910;23.792;2023-03-08T15:16:37;96804.13;;;16.50;32.05
57086;BME280;42964;42.910;23.792;2023-03-08T15:21:36;96814.38;;;16.57;31.58
57086;BME280;42964;42.910;23.792;2023-03-08T15:26:35;96826.25;;;16.65;31.78
57086;BME280;42964;42.910;23.792;2023-03-08T15:31:34;96813.09;;;16.45;31.97
57086;BME280;42964;42.910;23.792;2023-03-08T15:36:33;96827.31;;;16.16;32.93
57086;BME280;42964;42.910;23.792;2023-03-08T15:41:33;96830.41;;;16.03;33.72
57086;BME280;42964;42.910;23.792;2023-03-08T15:46:32;96836.44;;;15.82;34.38
57086;BME280;42964;42.910;23.792;2023-03-08T15:51:35;96832.53;;;15.68;34.90
57086;BME280;42964;42.910;23.792;2023-03-08T15:56:34;96829.06;;;15.43;34.87
57086;BME280;42964;42.910;23.792;2023-03-08T16:01:33;96829.66;;;15.26;35.35
57086;BME280;42964;42.910;23.792;2023-03-08T16:06:32;96829.13;;;15.16;35.87
57086;BME280;42964;42.910;23.792;2023-03-08T16:11:30;96826.78;;;15.09;36.34
57086;BME280;42964;42.910;23.792;2023-03-08T16:16:29;96819.44;;;14.93;36.48
57086;BME280;42964;42.910;23.792;2023-03-08T16:21:28;96824.28;;;14.79;36.38
57086;BME280;42964;42.910;23.792;2023-03-08T16:26:27;96823.19;;;14.58;36.21
57086;BME280;42964;42.910;23.792;2023-03-08T16:31:26;96811.69;;;14.35;36.75
57086;BME280;42964;42.910;23.792;2023-03-08T16:36:25;96808.72;;;14.19;36.56
57086;BME280;42964;42.910;23.792;2023-03-08T16:41:24;96819.66;;;14.03;36.96
57086;BME280;42964;42.910;23.792;2023-03-08T16:46:23;96814.06;;;13.87;37.61
57086;BME280;42964;42.910;23.792;2023-03-08T16:51:24;96830.16;;;13.70;38.30
57086;BME280;42964;42.910;23.792;2023-03-08T16:56:25;96833.25;;;13.51;38.76
57086;BME280;42964;42.910;23.792;2023-03-08T17:01:25;96837.16;;;13.35;39.01
57086;BME280;42964;42.910;23.792;2023-03-08T17:06:27;96854.16;;;13.17;39.37
57086;BME280;42964;42.910;23.792;2023-03-08T17:11:28;96858.16;;;12.96;39.89
57086;BME280;42964;42.910;23.792;2023-03-08T17:16:29;96867.25;;;12.80;40.57
57086;BME280;42964;42.910;23.792;2023-03-08T17:21:29;96846.25;;;12.50;40.83
57086;BME280;42964;42.910;23.792;2023-03-08T17:26:28;96864.63;;;12.44;41.57
57086;BME280;42964;42.910;23.792;2023-03-08T17:31:28;96881.41;;;12.29;41.70
57086;BME280;42964;42.910;23.792;2023-03-08T17:36:27;96847.63;;;11.85;42.52
57086;BME280;42964;42.910;23.792;2023-03-08T17:41:26;96913.50;;;11.84;44.01
57086;BME280;42964;42.910;23.792;2023-03-08T17:46:25;96938.63;;;11.85;44.27
57086;BME280;42964;42.910;23.792;2023-03-08T17:51:27;96938.13;;;11.65;44.95
57086;BME280;42964;42.910;23.792;2023-03-08T17:56:30;96898.22;;;11.19;44.22
57086;BME280;42964;42.910;23.792;2023-03-08T18:01:30;96925.22;;;11.11;46.45
57086;BME280;42964;42.910;23.792;2023-03-08T18:06:35;96976.06;;;11.24;46.33
57086;BME280;42964;42.910;23.792;2023-03-08T18:11:35;96924.09;;;10.70;48.05
57086;BME280;42964;42.910;23.792;2023-03-08T18:16:39;96982.72;;;10.83;47.85
57086;BME280;42964;42.910;23.792;2023-03-08T18:21:38;96981.28;;;10.62;48.61
57086;BME280;42964;42.910;23.792;2023-03-08T18:26:37;96984.06;;;10.50;49.86
57086;BME280;42964;42.910;23.792;2023-03-08T18:31:36;96974.66;;;10.41;49.14
57086;BME280;42964;42.910;23.792;2023-03-08T18:36:37;96972.00;;;10.46;49.75
57086;BME280;42964;42.910;23.792;2023-03-08T18:41:36;96979.03;;;10.36;49.37
57086;BME280;42964;42.910;23.792;2023-03-08T18:46:35;96962.06;;;10.09;50.12
57086;BME280;42964;42.910;23.792;2023-03-08T18:51:36;96977.56;;;10.13;49.93
57086;BME280;42964;42.910;23.792;2023-03-08T18:56:35;96966.34;;;10.11;50.64
57086;BME280;42964;42.910;23.792;2023-03-08T19:01:34;96967.19;;;10.13;50.62
57086;BME280;42964;42.910;23.792;2023-03-08T19:06:34;96985.28;;;10.19;50.29
57086;BME280;42964;42.910;23.792;2023-03-08T19:11:33;96990.56;;;10.10;50.54
57086;BME280;42964;42.910;23.792;2023-03-08T19:16:34;96982.00;;;10.02;50.60
57086;BME280;42964;42.910;23.792;2023-03-08T19:21:40;96994.91;;;10.10;50.29
57086;BME280;42964;42.910;23.792;2023-03-08T19:26:40;96988.84;;;10.11;50.80
57086;BME280;42964;42.910;23.792;2023-03-08T19:31:44;96989.75;;;10.07;50.77
57086;BME280;42964;42.910;23.792;2023-03-08T19:36:45;97003.59;;;10.06;50.68
57086;BME280;42964;42.910;23.792;2023-03-08T19:41:46;97003.59;;;10.06;49.99
57086;BME280;42964;42.910;23.792;2023-03-08T19:46:46;96994.13;;;10.03;49.98
57086;BME280;42964;42.910;23.792;2023-03-08T19:51:46;96994.06;;;10.06;50.40
57086;BME280;42964;42.910;23.792;2023-03-08T19:56:45;96990.78;;;9.92;50.82
57086;BME280;42964;42.910;23.792;2023-03-08T20:01:45;97021.13;;;9.79;51.64
57086;BME280;42964;42.910;23.792;2023-03-08T20:06:45;97030.88;;;9.54;52.74
57086;BME280;42964;42.910;23.792;2023-03-08T20:11:44;97001.81;;;9.12;53.04
57086;BME280;42964;42.910;23.792;2023-03-08T20:16:43;97023.34;;;9.19;53.61
57086;BME280;42964;42.910;23.792;2023-03-08T20:21:43;97027.72;;;9.10;53.24
57086;BME280;42964;42.910;23.792;2023-03-08T20:26:42;97022.56;;;9.07;51.76
57086;BME280;42964;42.910;23.792;2023-03-08T20:31:41;96995.94;;;8.93;51.62
57086;BME280;42964;42.910;23.792;2023-03-08T20:36:40;97027.59;;;9.27;50.73
57086;BME280;42964;42.910;23.792;2023-03-08T20:41:39;97040.50;;;9.37;49.99
57086;BME280;42964;42.910;23.792;2023-03-08T20:46:38;97017.16;;;9.43;49.26
57086;BME280;42964;42.910;23.792;2023-03-08T20:51:37;96970.66;;;9.30;48.79
57086;BME280;42964;42.910;23.792;2023-03-08T20:56:35;97015.13;;;9.75;48.29
57086;BME280;42964;42.910;23.792;2023-03-08T21:01:34;97008.03;;;9.93;47.67
57086;BME280;42964;42.910;23.792;2023-03-08T21:06:34;97007.81;;;10.14;46.97
57086;BME280;42964;42.910;23.792;2023-03-08T21:11:33;97002.34;;;10.39;45.96
57086;BME280;42964;42.910;23.792;2023-03-08T21:16:32;96957.56;;;10.25;45.84
57086;BME280;42964;42.910;23.792;2023-03-08T21:21:39;97003.91;;;10.49;46.57
57086;BME280;42964;42.910;23.792;2023-03-08T21:26:39;97009.19;;;10.43;45.76
57086;BME280;42964;42.910;23.792;2023-03-08T21:31:40;96988.44;;;10.43;45.98
57086;BME280;42964;42.910;23.792;2023-03-08T21:36:40;96996.00;;;10.60;45.39
57086;BME280;42964;42.910;23.792;2023-03-08T21:41:42;96987.34;;;10.61;45.92
57086;BME280;42964;42.910;23.792;2023-03-08T21:46:42;96957.16;;;10.55;45.85
57086;BME280;42964;42.910;23.792;2023-03-08T21:51:42;96975.78;;;10.82;46.03
57086;BME280;42964;42.910;23.792;2023-03-08T21:56:41;96976.69;;;10.82;45.22
57086;BME280;42964;42.910;23.792;2023-03-08T22:01:41;96965.31;;;10.91;45.83
57086;BME280;42964;42.910;23.792;2023-03-08T22:06:43;96967.06;;;10.91;45.34
57086;BME280;42964;42.910;23.792;2023-03-08T22:11:42;96987.84;;;10.86;45.69
57086;BME280;42964;42.910;23.792;2023-03-08T22:16:41;96974.03;;;10.84;46.47
57086;BME280;42964;42.910;23.792;2023-03-08T22:21:40;96974.16;;;10.78;46.28
57086;BME280;42964;42.910;23.792;2023-03-08T22:26:39;96970.56;;;10.90;45.56
57086;BME280;42964;42.910;23.792;2023-03-08T22:31:37;96978.16;;;11.00;45.23
57086;BME280;42964;42.910;23.792;2023-03-08T22:36:37;96996.34;;;11.00;45.14
57086;BME280;42964;42.910;23.792;2023-03-08T22:41:35;96992.75;;;11.08;45.13
57086;BME280;42964;42.910;23.792;2023-03-08T22:46:34;96994.44;;;11.10;45.14
57086;BME280;42964;42.910;23.792;2023-03-08T22:51:33;96994.09;;;10.74;44.63
57086;BME280;42964;42.910;23.792;2023-03-08T22:56:34;96973.72;;;11.09;44.63
57086;BME280;42964;42.910;23.792;2023-03-08T23:01:33;96992.53;;;11.24;43.86
57086;BME280;42964;42.910;23.792;2023-03-08T23:06:33;96982.16;;;11.23;44.89
57086;BME280;42964;42.910;23.792;2023-03-08T23:11:33;96989.19;;;11.15;44.27
57086;BME280;42964;42.910;23.792;2023-03-08T23:16:33;96983.19;;;11.11;44.01
57086;BME280;42964;42.910;23.792;2023-03-08T23:21:32;96985.56;;;11.25;43.54
57086;BME280;42964;42.910;23.792;2023-03-08T23:26:33;96984.72;;;11.24;44.08
57086;BME280;42964;42.910;23.792;2023-03-08T23:31:33;96988.28;;;11.17;43.87
57086;BME280;42964;42.910;23.792;2023-03-08T23:36:32;96990.84;;;11.20;43.71
57086;BME280;42964;42.910;23.792;2023-03-08T23:41:31;96965.63;;;11.27;43.98
57086;BME280;42964;42.910;23.792;2023-03-08T23:46:31;96989.88;;;11.28;43.48
57086;BME280;42964;42.910;23.792;2023-03-08T23:51:31;96984.81;;;11.20;43.61
57086;BME280;42964;42.910;23.792;2023-03-08T23:56:35;96887.69;;;10.76;43.66
